createdAt,value
2016-09-28T00:00:04.416Z,84.54
2016-09-28T00:00:26.152Z,84.89
2016-09-28T00:00:47.898Z,84.90
2016-09-28T00:01:09.617Z,84.65
2016-09-28T00:01:31.357Z,84.58
2016-09-28T00:01:53.091Z,84.53
2016-09-28T00:02:14.810Z,84.40
2016-09-28T00:02:36.552Z,84.52
2016-09-28T00:02:58.293Z,84.40
2016-09-28T00:03:20.016Z,84.42
2016-09-28T00:03:41.741Z,84.01
2016-09-28T00:04:29.953Z,83.40
2016-09-28T00:04:51.684Z,83.30
2016-09-28T00:05:18.180Z,82.93
2016-09-28T00:05:39.899Z,82.61
2016-09-28T00:06:01.633Z,82.47
2016-09-28T00:06:23.355Z,82.70
2016-09-28T00:06:45.124Z,82.80
2016-09-28T00:07:06.856Z,82.95
2016-09-28T00:07:28.583Z,83.13
2016-09-28T00:07:50.308Z,83.35
2016-09-28T00:08:12.024Z,83.43
2016-09-28T00:08:33.754Z,83.79
2016-09-28T00:08:55.481Z,84.11
2016-09-28T00:09:17.205Z,83.97
2016-09-28T00:09:38.929Z,84.12
2016-09-28T00:10:00.663Z,84.13
2016-09-28T00:10:22.417Z,84.23
2016-09-28T00:10:44.129Z,84.40
2016-09-28T00:11:05.863Z,84.49
2016-09-28T00:11:27.585Z,84.41
2016-09-28T00:11:49.315Z,84.16
2016-09-28T00:12:11.051Z,83.91
2016-09-28T00:12:32.785Z,83.98
2016-09-28T00:12:54.507Z,84.04
2016-09-28T00:13:16.228Z,84.14
2016-09-28T00:13:37.943Z,84.06
2016-09-28T00:13:59.669Z,84.10
2016-09-28T00:14:21.387Z,83.73
2016-09-28T00:14:43.096Z,83.15
2016-09-28T00:15:04.817Z,82.99
2016-09-28T00:15:26.545Z,83.20
2016-09-28T00:15:48.275Z,83.16
2016-09-28T00:16:36.507Z,83.02
2016-09-28T00:16:58.225Z,82.77
2016-09-28T00:17:19.940Z,82.86
2016-09-28T00:17:41.671Z,82.70
2016-09-28T00:18:03.390Z,82.74
2016-09-28T00:18:25.112Z,82.69
2016-09-28T00:19:13.533Z,82.77
2016-09-28T00:19:35.268Z,82.66
2016-09-28T00:19:56.979Z,82.78
2016-09-28T00:20:18.699Z,82.67
2016-09-28T00:20:40.423Z,82.49
2016-09-28T00:21:03.146Z,82.47
2016-09-28T00:21:24.875Z,82.51
2016-09-28T00:21:47.672Z,82.22
2016-09-28T00:22:09.403Z,81.95
2016-09-28T00:22:33.943Z,82.83
2016-09-28T00:22:55.665Z,82.83
2016-09-28T00:23:17.379Z,82.88
2016-09-28T00:23:39.102Z,82.91
2016-09-28T00:24:00.823Z,83.38
2016-09-28T00:24:27.326Z,83.64
2016-09-28T00:24:49.041Z,83.87
2016-09-28T00:25:10.770Z,84.09
2016-09-28T00:25:32.490Z,84.18
2016-09-28T00:25:54.219Z,84.03
2016-09-28T00:26:15.931Z,84.29
2016-09-28T00:26:37.656Z,84.23
2016-09-28T00:26:59.390Z,84.49
2016-09-28T00:27:25.886Z,85.00
2016-09-28T00:27:47.601Z,84.99
2016-09-28T00:28:09.330Z,84.63
2016-09-28T00:28:31.057Z,84.44
2016-09-28T00:28:52.788Z,84.55
2016-09-28T00:29:14.510Z,84.81
2016-09-28T00:29:36.304Z,84.83
2016-09-28T00:29:58.037Z,85.01
2016-09-28T00:30:19.774Z,85.11
2016-09-28T00:30:41.499Z,85.20
2016-09-28T00:31:03.231Z,84.87
2016-09-28T00:31:24.955Z,85.00
2016-09-28T00:31:46.684Z,84.98
2016-09-28T00:32:08.408Z,84.99
2016-09-28T00:32:30.132Z,84.71
2016-09-28T00:32:51.854Z,84.77
2016-09-28T00:33:13.579Z,84.72
2016-09-28T00:33:35.294Z,84.40
2016-09-28T00:33:57.022Z,84.08
2016-09-28T00:34:18.744Z,84.17
2016-09-28T00:34:40.465Z,84.15
2016-09-28T00:35:02.203Z,84.04
2016-09-28T00:35:23.918Z,83.87
2016-09-28T00:35:45.664Z,83.92
2016-09-28T00:36:07.390Z,83.92
2016-09-28T00:36:29.118Z,83.83
2016-09-28T00:36:50.858Z,83.70
2016-09-28T00:37:12.589Z,83.80
2016-09-28T00:37:34.311Z,83.85
2016-09-28T00:37:56.036Z,83.96
2016-09-28T00:38:17.754Z,83.97
2016-09-28T00:38:39.480Z,83.93
2016-09-28T00:39:01.208Z,83.69
2016-09-28T00:39:22.944Z,83.60
2016-09-28T00:39:44.673Z,83.52
2016-09-28T00:40:06.395Z,83.67
2016-09-28T00:40:28.106Z,83.26
2016-09-28T00:40:49.828Z,83.30
2016-09-28T00:41:11.541Z,83.59
2016-09-28T00:41:33.261Z,83.91
2016-09-28T00:41:54.986Z,84.17
2016-09-28T00:42:16.705Z,84.29
2016-09-28T00:42:38.431Z,84.30
2016-09-28T00:43:00.154Z,84.22
2016-09-28T00:43:21.872Z,84.11
2016-09-28T00:43:43.605Z,84.15
2016-09-28T00:44:05.330Z,84.00
2016-09-28T00:44:27.051Z,83.91
2016-09-28T00:44:48.778Z,84.45
2016-09-28T00:45:10.507Z,84.57
2016-09-28T00:45:32.238Z,85.07
2016-09-28T00:45:53.966Z,84.91
2016-09-28T00:46:15.681Z,84.78
2016-09-28T00:46:37.403Z,84.53
2016-09-28T00:46:59.134Z,84.29
2016-09-28T00:47:20.858Z,84.55
2016-09-28T00:47:42.589Z,84.52
2016-09-28T00:48:04.311Z,84.54
2016-09-28T00:48:26.029Z,84.18
2016-09-28T00:48:47.752Z,84.05
2016-09-28T00:49:09.546Z,83.77
2016-09-28T00:49:36.052Z,83.93
2016-09-28T00:49:57.783Z,84.43
2016-09-28T00:50:19.552Z,84.58
2016-09-28T00:50:41.275Z,84.94
2016-09-28T00:51:03.021Z,84.13
2016-09-28T00:51:24.737Z,83.75
2016-09-28T00:51:46.455Z,83.42
2016-09-28T00:52:12.945Z,83.14
2016-09-28T00:52:34.663Z,83.48
2016-09-28T00:52:56.388Z,83.27
2016-09-28T00:53:18.110Z,83.13
2016-09-28T00:53:39.825Z,83.09
2016-09-28T00:54:01.537Z,83.56
2016-09-28T00:54:23.271Z,83.40
2016-09-28T00:54:44.983Z,83.41
2016-09-28T00:55:06.717Z,83.39
2016-09-28T00:55:28.443Z,83.25
2016-09-28T00:55:50.253Z,83.11
2016-09-28T00:56:11.985Z,83.61
2016-09-28T00:56:33.704Z,83.69
2016-09-28T00:56:55.428Z,83.57
2016-09-28T00:57:17.144Z,83.37
2016-09-28T00:57:38.884Z,83.11
2016-09-28T00:58:00.611Z,82.90
2016-09-28T00:58:22.341Z,82.74
2016-09-28T00:58:44.072Z,82.85
2016-09-28T00:59:05.767Z,82.90
2016-09-28T00:59:27.498Z,82.70
2016-09-28T00:59:49.217Z,82.89
2016-09-28T01:00:10.945Z,83.00
2016-09-28T01:00:32.669Z,82.92
2016-09-28T01:00:54.394Z,82.99
2016-09-28T01:01:20.890Z,83.41
2016-09-28T01:01:42.612Z,83.52
2016-09-28T01:02:04.338Z,83.40
2016-09-28T01:02:26.058Z,83.31
2016-09-28T01:02:47.786Z,83.42
2016-09-28T01:03:09.511Z,83.21
2016-09-28T01:03:31.246Z,83.06
2016-09-28T01:03:52.964Z,83.08
2016-09-28T01:04:14.692Z,83.16
2016-09-28T01:04:36.413Z,83.21
2016-09-28T01:04:58.151Z,83.15
2016-09-28T01:05:19.870Z,83.36
2016-09-28T01:05:41.591Z,83.79
2016-09-28T01:06:03.319Z,83.68
2016-09-28T01:06:25.041Z,83.34
2016-09-28T01:06:46.778Z,83.29
2016-09-28T01:07:08.501Z,83.41
2016-09-28T01:07:30.223Z,83.30
2016-09-28T01:07:51.948Z,83.22
2016-09-28T01:08:13.671Z,82.83
2016-09-28T01:08:35.399Z,82.79
2016-09-28T01:08:57.128Z,82.61
2016-09-28T01:09:18.845Z,82.51
2016-09-28T01:09:40.570Z,83.06
2016-09-28T01:10:02.301Z,83.15
2016-09-28T01:10:28.799Z,83.66
2016-09-28T01:10:50.518Z,83.67
2016-09-28T01:11:12.236Z,83.89
2016-09-28T01:11:33.968Z,84.18
2016-09-28T01:12:00.473Z,84.17
2016-09-28T01:12:22.198Z,83.75
2016-09-28T01:12:43.916Z,83.84
2016-09-28T01:13:05.654Z,84.02
2016-09-28T01:13:27.385Z,84.04
2016-09-28T01:13:49.094Z,84.33
2016-09-28T01:14:10.877Z,84.07
2016-09-28T01:14:32.600Z,83.81
2016-09-28T01:14:54.326Z,83.85
2016-09-28T01:15:20.834Z,84.25
2016-09-28T01:15:42.563Z,84.36
2016-09-28T01:16:04.285Z,84.22
2016-09-28T01:16:26.006Z,84.27
2016-09-28T01:16:47.730Z,83.98
2016-09-28T01:17:09.465Z,83.94
2016-09-28T01:17:31.193Z,84.01
2016-09-28T01:17:52.911Z,83.93
2016-09-28T01:18:41.135Z,83.57
2016-09-28T01:19:02.856Z,83.45
2016-09-28T01:19:24.577Z,83.40
2016-09-28T01:19:46.290Z,83.52
2016-09-28T01:20:08.018Z,83.62
2016-09-28T01:20:29.752Z,83.96
2016-09-28T01:20:51.471Z,84.30
2016-09-28T01:21:17.970Z,84.43
2016-09-28T01:21:39.682Z,84.48
2016-09-28T01:22:01.404Z,84.49
2016-09-28T01:22:23.121Z,84.59
2016-09-28T01:22:44.841Z,84.63
2016-09-28T01:23:11.343Z,84.84
2016-09-28T01:23:33.058Z,84.75
2016-09-28T01:23:54.783Z,84.48
2016-09-28T01:24:16.498Z,84.13
2016-09-28T01:24:38.220Z,84.62
2016-09-28T01:24:59.935Z,85.29
2016-09-28T01:25:21.662Z,85.09
2016-09-28T01:25:43.378Z,84.63
2016-09-28T01:26:05.108Z,84.22
2016-09-28T01:26:26.826Z,83.83
2016-09-28T01:26:48.542Z,84.15
2016-09-28T01:27:10.265Z,84.53
2016-09-28T01:27:31.999Z,84.93
2016-09-28T01:27:53.733Z,84.79
2016-09-28T01:28:15.455Z,84.95
2016-09-28T01:28:37.182Z,84.89
2016-09-28T01:28:58.898Z,84.94
2016-09-28T01:29:20.626Z,84.95
2016-09-28T01:29:42.343Z,84.96
2016-09-28T01:30:04.065Z,84.98
2016-09-28T01:30:25.791Z,84.42
2016-09-28T01:30:47.516Z,84.49
2016-09-28T01:31:10.238Z,84.43
2016-09-28T01:31:31.957Z,83.90
2016-09-28T01:31:58.450Z,84.38
2016-09-28T01:32:20.171Z,84.76
2016-09-28T01:32:41.889Z,84.78
2016-09-28T01:33:03.611Z,84.47
2016-09-28T01:33:25.332Z,84.59
2016-09-28T01:33:47.052Z,84.73
2016-09-28T01:34:08.773Z,84.71
2016-09-28T01:34:30.494Z,84.78
2016-09-28T01:34:52.213Z,85.00
2016-09-28T01:35:13.935Z,85.65
2016-09-28T01:35:35.650Z,85.79
2016-09-28T01:35:57.387Z,85.86
2016-09-28T01:36:19.102Z,85.64
2016-09-28T01:36:40.825Z,85.51
2016-09-28T01:37:02.549Z,85.72
2016-09-28T01:37:24.261Z,85.53
2016-09-28T01:37:45.985Z,85.32
2016-09-28T01:38:07.710Z,85.32
2016-09-28T01:38:29.432Z,85.42
2016-09-28T01:38:51.160Z,85.10
2016-09-28T01:39:12.968Z,84.94
2016-09-28T01:39:34.689Z,85.31
2016-09-28T01:39:56.427Z,84.83
2016-09-28T01:40:18.135Z,84.29
2016-09-28T01:40:39.847Z,84.25
2016-09-28T01:41:06.357Z,84.07
2016-09-28T01:41:28.078Z,84.07
2016-09-28T01:41:49.797Z,84.83
2016-09-28T01:42:11.521Z,84.27
2016-09-28T01:42:33.233Z,84.15
2016-09-28T01:42:59.727Z,84.10
2016-09-28T01:43:21.451Z,84.28
2016-09-28T01:43:43.179Z,84.57
2016-09-28T01:44:04.897Z,84.45
2016-09-28T01:44:26.673Z,84.08
2016-09-28T01:44:48.395Z,84.27
2016-09-28T01:45:10.114Z,84.29
2016-09-28T01:45:31.828Z,84.60
2016-09-28T01:45:53.550Z,84.28
2016-09-28T01:46:15.269Z,85.03
2016-09-28T01:46:36.987Z,84.71
2016-09-28T01:46:58.706Z,84.78
2016-09-28T01:47:20.417Z,84.93
2016-09-28T01:47:42.135Z,84.63
2016-09-28T01:48:03.870Z,84.95
2016-09-28T01:48:25.656Z,84.85
2016-09-28T01:48:47.387Z,84.66
2016-09-28T01:49:09.093Z,84.77
2016-09-28T01:49:30.820Z,85.15
2016-09-28T01:49:52.542Z,85.27
2016-09-28T01:50:14.258Z,85.79
2016-09-28T01:50:35.973Z,85.57
2016-09-28T01:50:57.694Z,85.16
2016-09-28T01:51:19.432Z,84.92
2016-09-28T01:51:41.153Z,84.71
2016-09-28T01:52:02.881Z,84.62
2016-09-28T01:52:24.597Z,85.23
2016-09-28T01:52:46.322Z,85.21
2016-09-28T01:53:08.036Z,84.44
2016-09-28T01:53:29.854Z,84.44
2016-09-28T01:53:51.582Z,84.49
2016-09-28T01:54:13.297Z,84.50
2016-09-28T01:54:35.019Z,84.43
2016-09-28T01:54:56.754Z,84.37
2016-09-28T01:55:18.470Z,84.99
2016-09-28T01:55:40.190Z,84.68
2016-09-28T01:56:01.908Z,84.92
2016-09-28T01:56:28.398Z,84.84
2016-09-28T01:56:50.135Z,84.91
2016-09-28T01:57:11.860Z,84.62
2016-09-28T01:57:33.582Z,84.81
2016-09-28T01:57:55.300Z,84.94
2016-09-28T01:58:17.015Z,85.36
2016-09-28T01:58:38.737Z,85.57
2016-09-28T01:59:00.454Z,85.88
2016-09-28T01:59:22.202Z,85.62
2016-09-28T01:59:48.734Z,85.26
2016-09-28T02:00:10.451Z,85.52
2016-09-28T02:00:32.174Z,85.50
2016-09-28T02:00:56.120Z,85.10
2016-09-28T02:01:17.845Z,85.17
2016-09-28T02:01:39.558Z,85.19
2016-09-28T02:02:01.285Z,85.19
2016-09-28T02:02:23.006Z,85.40
2016-09-28T02:02:44.807Z,85.66
2016-09-28T02:03:06.542Z,86.01
2016-09-28T02:03:28.266Z,85.21
2016-09-28T02:03:49.982Z,85.48
2016-09-28T02:04:11.707Z,85.63
2016-09-28T02:04:33.427Z,85.51
2016-09-28T02:04:55.140Z,85.95
2016-09-28T02:05:16.855Z,85.69
2016-09-28T02:05:38.570Z,85.54
2016-09-28T02:06:00.294Z,85.46
2016-09-28T02:06:22.011Z,85.56
2016-09-28T02:06:43.815Z,85.78
2016-09-28T02:07:05.533Z,85.91
2016-09-28T02:07:27.242Z,86.03
2016-09-28T02:07:48.961Z,85.94
2016-09-28T02:08:10.676Z,85.84
2016-09-28T02:08:32.414Z,85.92
2016-09-28T02:08:54.129Z,85.65
2016-09-28T02:09:15.847Z,85.51
2016-09-28T02:09:37.568Z,85.49
2016-09-28T02:09:59.299Z,85.77
2016-09-28T02:10:21.021Z,85.88
2016-09-28T02:10:42.746Z,85.84
2016-09-28T02:11:04.471Z,85.70
2016-09-28T02:11:26.175Z,86.01
2016-09-28T02:11:47.898Z,86.01
2016-09-28T02:12:09.690Z,86.10
2016-09-28T02:12:31.416Z,86.48
2016-09-28T02:12:53.139Z,86.59
2016-09-28T02:13:14.842Z,86.65
2016-09-28T02:13:36.574Z,86.54
2016-09-28T02:13:58.283Z,86.39
2016-09-28T02:14:20.000Z,86.28
2016-09-28T02:14:41.725Z,86.22
2016-09-28T02:15:03.447Z,86.10
2016-09-28T02:15:25.161Z,86.11
2016-09-28T02:15:46.880Z,85.80
2016-09-28T02:16:08.599Z,85.99
2016-09-28T02:16:30.320Z,85.99
2016-09-28T02:16:52.045Z,86.26
2016-09-28T02:17:18.544Z,86.13
2016-09-28T02:17:40.266Z,85.83
2016-09-28T02:18:02.016Z,86.09
2016-09-28T02:18:23.741Z,85.97
2016-09-28T02:18:45.463Z,86.16
2016-09-28T02:19:07.194Z,86.34
2016-09-28T02:19:28.906Z,86.46
2016-09-28T02:19:50.635Z,86.82
2016-09-28T02:20:12.359Z,86.75
2016-09-28T02:20:34.083Z,86.42
2016-09-28T02:20:55.815Z,86.13
2016-09-28T02:21:17.532Z,86.06
2016-09-28T02:21:39.252Z,86.51
2016-09-28T02:22:00.970Z,86.78
2016-09-28T02:22:22.691Z,86.83
2016-09-28T02:22:44.403Z,86.52
2016-09-28T02:23:06.122Z,86.35
2016-09-28T02:23:27.859Z,86.11
2016-09-28T02:23:49.577Z,86.09
2016-09-28T02:24:11.325Z,85.98
2016-09-28T02:24:33.043Z,85.89
2016-09-28T02:24:54.768Z,85.90
2016-09-28T02:25:16.496Z,86.02
2016-09-28T02:25:43.066Z,86.50
2016-09-28T02:26:04.800Z,86.39
2016-09-28T02:26:26.544Z,86.40
2016-09-28T02:26:48.253Z,86.24
2016-09-28T02:27:09.978Z,86.01
2016-09-28T02:27:31.693Z,85.91
2016-09-28T02:27:53.416Z,86.00
2016-09-28T02:28:15.139Z,86.14
2016-09-28T02:28:36.848Z,86.07
2016-09-28T02:28:58.576Z,86.17
2016-09-28T02:29:21.305Z,85.76
2016-09-28T02:29:43.033Z,85.88
2016-09-28T02:30:04.747Z,86.51
2016-09-28T02:30:26.467Z,86.60
2016-09-28T02:30:48.176Z,86.44
2016-09-28T02:31:09.895Z,86.89
2016-09-28T02:31:31.606Z,86.72
2016-09-28T02:31:53.395Z,86.71
2016-09-28T02:32:15.120Z,87.07
2016-09-28T02:32:36.848Z,87.02
2016-09-28T02:32:58.572Z,86.76
2016-09-28T02:33:20.356Z,86.32
2016-09-28T02:33:42.073Z,86.25
2016-09-28T02:34:03.810Z,86.42
2016-09-28T02:34:25.536Z,86.47
2016-09-28T02:34:47.261Z,86.61
2016-09-28T02:35:08.992Z,86.55
2016-09-28T02:35:30.714Z,86.66
2016-09-28T02:35:52.432Z,86.65
2016-09-28T02:36:14.147Z,86.85
2016-09-28T02:36:35.869Z,86.74
2016-09-28T02:36:57.594Z,86.71
2016-09-28T02:37:19.353Z,86.65
2016-09-28T02:37:41.069Z,86.55
2016-09-28T02:38:02.784Z,86.63
2016-09-28T02:38:24.598Z,86.80
2016-09-28T02:38:46.313Z,86.75
2016-09-28T02:39:08.035Z,86.93
2016-09-28T02:39:29.748Z,87.00
2016-09-28T02:39:51.471Z,86.90
2016-09-28T02:40:13.181Z,86.85
2016-09-28T02:40:34.903Z,86.68
2016-09-28T02:40:56.630Z,86.51
2016-09-28T02:41:23.139Z,86.62
2016-09-28T02:41:44.848Z,86.43
2016-09-28T02:42:11.392Z,86.74
2016-09-28T02:42:33.117Z,86.63
2016-09-28T02:42:54.829Z,86.81
2016-09-28T02:43:16.554Z,86.55
2016-09-28T02:43:38.269Z,86.53
2016-09-28T02:43:59.990Z,86.84
2016-09-28T02:44:21.721Z,86.87
2016-09-28T02:44:43.504Z,87.17
2016-09-28T02:45:05.229Z,86.65
2016-09-28T02:45:26.947Z,86.37
2016-09-28T02:45:48.666Z,86.35
2016-09-28T02:46:10.397Z,86.05
2016-09-28T02:46:32.115Z,86.50
2016-09-28T02:46:53.836Z,86.89
2016-09-28T02:47:15.568Z,86.76
2016-09-28T02:47:37.287Z,86.86
2016-09-28T02:47:59.011Z,86.69
2016-09-28T02:48:20.736Z,86.23
2016-09-28T02:48:42.545Z,86.23
2016-09-28T02:49:04.263Z,86.47
2016-09-28T02:49:25.981Z,86.54
2016-09-28T02:49:47.702Z,86.60
2016-09-28T02:50:09.501Z,86.61
2016-09-28T02:50:31.222Z,86.70
2016-09-28T02:50:52.942Z,86.66
2016-09-28T02:51:14.663Z,86.74
2016-09-28T02:51:36.384Z,86.49
2016-09-28T02:51:58.100Z,86.64
2016-09-28T02:52:19.828Z,86.35
2016-09-28T02:52:41.553Z,86.22
2016-09-28T02:53:03.271Z,86.27
2016-09-28T02:53:25.015Z,86.50
2016-09-28T02:53:46.736Z,86.32
2016-09-28T02:54:08.462Z,86.09
2016-09-28T02:54:30.184Z,85.89
2016-09-28T02:54:51.891Z,85.97
2016-09-28T02:55:13.614Z,85.87
2016-09-28T02:55:35.332Z,86.60
2016-09-28T02:55:57.055Z,86.52
2016-09-28T02:56:18.768Z,85.93
2016-09-28T02:56:40.496Z,85.95
2016-09-28T02:57:02.219Z,85.89
2016-09-28T02:57:23.940Z,85.90
2016-09-28T02:57:45.667Z,85.89
2016-09-28T02:58:07.386Z,86.12
2016-09-28T02:58:29.108Z,85.88
2016-09-28T02:58:50.830Z,85.99
2016-09-28T02:59:12.577Z,86.17
2016-09-28T02:59:34.289Z,86.04
2016-09-28T02:59:56.017Z,86.02
2016-09-28T03:00:17.739Z,85.93
2016-09-28T03:00:39.457Z,86.13
2016-09-28T03:01:01.191Z,86.37
2016-09-28T03:01:22.907Z,86.55
2016-09-28T03:01:49.406Z,87.14
2016-09-28T03:02:11.117Z,86.87
2016-09-28T03:02:32.842Z,86.59
2016-09-28T03:02:54.571Z,86.28
2016-09-28T03:03:25.832Z,86.26
2016-09-28T03:03:48.635Z,86.01
2016-09-28T03:04:10.349Z,85.88
2016-09-28T03:04:32.071Z,85.87
2016-09-28T03:04:53.783Z,86.03
2016-09-28T03:05:15.511Z,86.13
2016-09-28T03:05:37.236Z,85.85
2016-09-28T03:05:58.958Z,85.70
2016-09-28T03:06:20.676Z,85.49
2016-09-28T03:06:47.184Z,85.85
2016-09-28T03:07:08.896Z,86.12
2016-09-28T03:07:30.612Z,85.99
2016-09-28T03:07:57.108Z,86.59
2016-09-28T03:08:18.833Z,86.53
2016-09-28T03:08:40.573Z,86.36
2016-09-28T03:09:02.266Z,86.28
2016-09-28T03:09:23.994Z,86.06
2016-09-28T03:09:45.797Z,86.12
2016-09-28T03:10:07.524Z,85.98
2016-09-28T03:10:29.249Z,85.79
2016-09-28T03:10:50.967Z,85.70
2016-09-28T03:11:12.686Z,85.95
2016-09-28T03:11:34.404Z,85.72
2016-09-28T03:11:56.129Z,85.63
2016-09-28T03:12:17.895Z,85.53
2016-09-28T03:12:39.614Z,85.53
2016-09-28T03:13:01.322Z,85.59
2016-09-28T03:13:23.031Z,85.72
2016-09-28T03:13:44.763Z,85.59
2016-09-28T03:14:06.487Z,85.44
2016-09-28T03:14:28.206Z,85.29
2016-09-28T03:14:49.937Z,85.27
2016-09-28T03:15:11.735Z,85.59
2016-09-28T03:15:33.485Z,85.58
2016-09-28T03:15:55.210Z,86.05
2016-09-28T03:16:16.923Z,86.09
2016-09-28T03:16:38.654Z,85.84
2016-09-28T03:17:00.382Z,85.88
2016-09-28T03:17:22.101Z,85.94
2016-09-28T03:17:43.906Z,85.97
2016-09-28T03:18:05.630Z,85.69
2016-09-28T03:18:27.359Z,85.64
2016-09-28T03:18:49.074Z,85.77
2016-09-28T03:19:10.792Z,86.06
2016-09-28T03:19:32.506Z,86.32
2016-09-28T03:19:54.242Z,86.39
2016-09-28T03:20:15.957Z,86.20
2016-09-28T03:20:37.672Z,85.87
2016-09-28T03:20:59.400Z,85.55
2016-09-28T03:21:21.134Z,85.74
2016-09-28T03:21:42.853Z,85.88
2016-09-28T03:22:07.157Z,85.77
2016-09-28T03:22:28.885Z,85.99
2016-09-28T03:22:50.616Z,86.20
2016-09-28T03:23:12.404Z,86.02
2016-09-28T03:23:34.128Z,86.09
2016-09-28T03:23:55.851Z,86.05
2016-09-28T03:24:17.572Z,85.95
2016-09-28T03:24:39.368Z,85.72
2016-09-28T03:25:01.090Z,85.67
2016-09-28T03:25:22.805Z,85.80
2016-09-28T03:25:44.535Z,85.88
2016-09-28T03:26:27.967Z,85.99
2016-09-28T03:26:49.694Z,86.36
2016-09-28T03:27:11.474Z,86.31
2016-09-28T03:27:33.192Z,86.37
2016-09-28T03:27:54.922Z,86.46
2016-09-28T03:28:21.414Z,86.38
2016-09-28T03:28:43.125Z,86.60
2016-09-28T03:29:04.842Z,87.11
2016-09-28T03:29:26.561Z,87.24
2016-09-28T03:29:48.286Z,87.02
2016-09-28T03:30:10.015Z,86.85
2016-09-28T03:30:58.255Z,86.16
2016-09-28T03:31:19.974Z,86.12
2016-09-28T03:31:41.692Z,86.14
2016-09-28T03:32:03.406Z,85.76
2016-09-28T03:32:25.128Z,85.43
2016-09-28T03:32:46.850Z,85.52
2016-09-28T03:33:08.588Z,85.20
2016-09-28T03:33:30.302Z,85.30
2016-09-28T03:33:52.021Z,85.63
2016-09-28T03:34:13.743Z,85.86
2016-09-28T03:34:35.477Z,86.18
2016-09-28T03:34:57.208Z,86.29
2016-09-28T03:35:18.923Z,86.35
2016-09-28T03:35:40.645Z,86.31
2016-09-28T03:36:02.370Z,86.65
2016-09-28T03:36:24.092Z,86.66
2016-09-28T03:36:45.812Z,86.88
2016-09-28T03:37:07.615Z,86.71
2016-09-28T03:37:55.830Z,86.17
2016-09-28T03:38:17.560Z,86.25
2016-09-28T03:38:39.288Z,86.31
2016-09-28T03:39:01.007Z,86.80
2016-09-28T03:39:22.735Z,86.87
2016-09-28T03:39:44.526Z,86.81
2016-09-28T03:40:06.249Z,86.66
2016-09-28T03:40:27.971Z,86.65
2016-09-28T03:40:49.698Z,86.67
2016-09-28T03:41:11.429Z,86.62
2016-09-28T03:41:33.160Z,86.52
2016-09-28T03:41:54.882Z,86.49
2016-09-28T03:42:16.598Z,86.54
2016-09-28T03:42:38.328Z,86.47
2016-09-28T03:43:04.828Z,86.31
2016-09-28T03:43:26.559Z,86.26
2016-09-28T03:43:48.306Z,86.26
2016-09-28T03:44:10.037Z,86.21
2016-09-28T03:44:31.769Z,85.96
2016-09-28T03:44:53.496Z,85.78
2016-09-28T03:45:19.995Z,86.22
2016-09-28T03:45:41.717Z,86.43
2016-09-28T03:46:03.439Z,86.31
2016-09-28T03:46:25.154Z,86.04
2016-09-28T03:46:46.876Z,85.94
2016-09-28T03:47:08.626Z,85.76
2016-09-28T03:47:30.357Z,85.82
2016-09-28T03:47:52.083Z,86.64
2016-09-28T03:48:13.843Z,86.69
2016-09-28T03:48:35.563Z,86.58
2016-09-28T03:48:57.298Z,86.21
2016-09-28T03:49:19.023Z,86.25
2016-09-28T03:49:40.758Z,86.26
2016-09-28T03:50:02.520Z,86.27
2016-09-28T03:50:24.254Z,86.05
2016-09-28T03:50:45.973Z,85.85
2016-09-28T03:51:07.698Z,85.80
2016-09-28T03:51:29.420Z,85.71
2016-09-28T03:51:51.150Z,85.76
2016-09-28T03:52:12.866Z,85.95
2016-09-28T03:52:34.585Z,86.08
2016-09-28T03:52:56.306Z,86.13
2016-09-28T03:53:18.021Z,86.05
2016-09-28T03:53:44.536Z,86.08
2016-09-28T03:54:06.249Z,86.45
2016-09-28T03:54:27.980Z,86.54
2016-09-28T03:54:49.714Z,86.32
2016-09-28T03:55:11.435Z,86.24
2016-09-28T03:55:33.161Z,85.96
2016-09-28T03:55:54.889Z,86.00
2016-09-28T03:56:16.607Z,85.93
2016-09-28T03:56:38.325Z,85.96
2016-09-28T03:57:00.057Z,86.19
2016-09-28T03:57:21.778Z,86.36
2016-09-28T03:57:48.275Z,86.49
2016-09-28T03:58:09.999Z,86.67
2016-09-28T03:58:31.725Z,86.44
2016-09-28T03:58:53.430Z,86.27
2016-09-28T03:59:15.157Z,85.94
2016-09-28T03:59:36.877Z,85.96
2016-09-28T03:59:58.597Z,86.24
2016-09-28T04:00:20.329Z,86.26
2016-09-28T04:00:42.057Z,86.15
2016-09-28T04:01:03.775Z,85.99
2016-09-28T04:01:25.505Z,85.99
2016-09-28T04:01:47.308Z,85.96
2016-09-28T04:02:09.033Z,85.94
2016-09-28T04:02:30.751Z,86.14
2016-09-28T04:02:52.495Z,86.16
2016-09-28T04:03:14.194Z,86.13
2016-09-28T04:03:35.927Z,86.28
2016-09-28T04:03:57.638Z,86.29
2016-09-28T04:04:19.459Z,86.28
2016-09-28T04:04:41.179Z,86.56
2016-09-28T04:05:02.904Z,86.64
2016-09-28T04:05:24.633Z,86.70
2016-09-28T04:05:46.361Z,86.77
2016-09-28T04:06:08.084Z,86.84
2016-09-28T04:06:29.813Z,86.91
2016-09-28T04:06:51.612Z,86.70
2016-09-28T04:07:13.327Z,86.46
2016-09-28T04:07:35.039Z,86.45
2016-09-28T04:07:56.760Z,86.33
2016-09-28T04:08:18.549Z,86.29
2016-09-28T04:08:40.264Z,86.21
2016-09-28T04:09:28.505Z,86.33
2016-09-28T04:09:50.313Z,86.48
2016-09-28T04:10:12.034Z,86.29
2016-09-28T04:10:33.755Z,86.18
2016-09-28T04:10:55.499Z,86.24
2016-09-28T04:11:17.230Z,86.17
2016-09-28T04:11:38.955Z,86.51
2016-09-28T04:12:27.259Z,86.14
2016-09-28T04:12:48.991Z,86.16
2016-09-28T04:13:10.709Z,86.37
2016-09-28T04:13:32.436Z,86.50
2016-09-28T04:13:54.155Z,86.98
2016-09-28T04:14:15.877Z,86.83
2016-09-28T04:15:04.140Z,86.57
2016-09-28T04:15:25.860Z,86.70
2016-09-28T04:15:47.589Z,86.38
2016-09-28T04:16:09.311Z,86.09
2016-09-28T04:16:31.030Z,86.07
2016-09-28T04:16:52.740Z,86.07
2016-09-28T04:17:14.475Z,86.12
2016-09-28T04:17:36.196Z,86.32
2016-09-28T04:17:57.915Z,86.10
2016-09-28T04:18:19.647Z,86.16
2016-09-28T04:18:41.368Z,86.46
2016-09-28T04:19:03.088Z,86.47
2016-09-28T04:19:25.813Z,86.27
2016-09-28T04:19:47.525Z,86.19
2016-09-28T04:20:09.301Z,86.24
2016-09-28T04:20:31.017Z,86.49
2016-09-28T04:20:52.737Z,86.50
2016-09-28T04:21:14.481Z,86.21
2016-09-28T04:21:36.207Z,85.95
2016-09-28T04:21:57.924Z,86.25
2016-09-28T04:22:19.650Z,86.53
2016-09-28T04:22:41.409Z,86.16
2016-09-28T04:23:03.157Z,86.33
2016-09-28T04:23:24.877Z,86.29
2016-09-28T04:23:46.594Z,86.24
2016-09-28T04:24:08.315Z,86.26
2016-09-28T04:24:30.034Z,86.14
2016-09-28T04:24:56.530Z,86.16
2016-09-28T04:25:18.252Z,86.29
2016-09-28T04:25:39.979Z,86.23
2016-09-28T04:26:01.704Z,86.44
2016-09-28T04:26:23.506Z,86.63
2016-09-28T04:26:45.218Z,86.65
2016-09-28T04:27:06.955Z,87.05
2016-09-28T04:27:28.674Z,87.04
2016-09-28T04:27:50.392Z,86.85
2016-09-28T04:28:12.117Z,87.01
2016-09-28T04:28:33.848Z,86.97
2016-09-28T04:28:55.580Z,87.21
2016-09-28T04:29:17.301Z,87.22
2016-09-28T04:29:39.033Z,87.19
2016-09-28T04:30:00.760Z,87.22
2016-09-28T04:30:22.473Z,87.27
2016-09-28T04:30:44.191Z,87.42
2016-09-28T04:31:05.938Z,87.46
2016-09-28T04:31:27.663Z,87.27
2016-09-28T04:31:49.394Z,86.93
2016-09-28T04:32:11.125Z,87.00
2016-09-28T04:32:32.853Z,87.04
2016-09-28T04:32:59.346Z,87.05
2016-09-28T04:33:21.067Z,86.82
2016-09-28T04:33:42.793Z,86.61
2016-09-28T04:34:04.630Z,86.56
2016-09-28T04:34:26.280Z,86.62
2016-09-28T04:34:48.008Z,86.58
2016-09-28T04:35:09.730Z,86.74
2016-09-28T04:35:31.455Z,86.69
2016-09-28T04:35:53.177Z,86.51
2016-09-28T04:36:14.911Z,86.92
2016-09-28T04:36:36.629Z,87.19
2016-09-28T04:36:58.358Z,87.24
2016-09-28T04:37:20.089Z,87.58
2016-09-28T04:37:41.871Z,87.88
2016-09-28T04:38:03.605Z,87.95
2016-09-28T04:38:25.330Z,87.35
2016-09-28T04:38:56.598Z,87.23
2016-09-28T04:39:18.396Z,86.98
2016-09-28T04:39:40.124Z,86.98
2016-09-28T04:40:01.842Z,87.12
2016-09-28T04:40:54.825Z,86.83
2016-09-28T04:41:16.549Z,86.99
2016-09-28T04:41:38.281Z,87.00
2016-09-28T04:42:00.003Z,86.99
2016-09-28T04:42:21.727Z,86.84
2016-09-28T04:42:43.538Z,87.05
2016-09-28T04:43:05.261Z,87.07
2016-09-28T04:43:26.991Z,87.19
2016-09-28T04:43:48.713Z,87.15
2016-09-28T04:44:10.428Z,87.18
2016-09-28T04:44:32.152Z,87.12
2016-09-28T04:44:53.881Z,86.78
2016-09-28T04:45:15.619Z,86.49
2016-09-28T04:45:37.350Z,86.28
2016-09-28T04:45:59.072Z,85.96
2016-09-28T04:46:20.786Z,86.11
2016-09-28T04:46:47.286Z,86.11
2016-09-28T04:47:09.029Z,86.13
2016-09-28T04:47:57.250Z,86.37